West Yellowstone, MT

11:50 AM MDT on September 18, 2014 (GMT -0600)
Yellowstone | Change Station
CLOSE
Current Station
Airport
Location: West Yellowstone,
Elevation: 6644 ft
Nearby Weather Stations

Elev 6644 ft 44.69 °N, 111.12 °W | Updated 20 minutes ago

Mostly Cloudy
Mostly Cloudy
55 °F
Feels Like 55 °F
N
6
Wind Variable Wind from North

Today
High -- | Low -- °F
--% Chance of Precip.
Yesterday
High -- | Low -- °F
Precip. -- in
7:06 AM 7:29 PM
Waning Crescent, 25% visible
Pressure 30.07 in
Visibility 10.0 miles
Clouds Mostly Cloudy 7500 ft
Mostly Cloudy 10000 ft
Dew Point 50 °F
Humidity 82%
Rainfall 0.13 in
Snow Depth 1 in , 0 in , 1 in
UV 3 out of 12
Pollen 6.20 out of 12
Air Quality Not available.
Flu Activity Not available.
METAR KWYS 181730Z AUTO 36005KT 10SM BKN075 BKN100 13/10 A3007 RMK AO2

More Conditions Fewer Conditions

Pressure 30.07 in
Visibility 10.0 miles
Clouds Mostly Cloudy 7500 ft
Mostly Cloudy 10000 ft
Dew Point 50 °F
Humidity 82%
Rainfall 0.13 in
Snow Depth 1 in , 0 in , 1 in
UV 3 out of 12
Pollen 6.20 out of 12
Air Quality Not available.
Flu Activity Not available.
METAR KWYS 181730Z AUTO 36005KT 10SM BKN075 BKN100 13/10 A3007 RMK AO2

More Conditions Fewer Conditions

10-Day Weather Forecast

Almanac

Astronomy

Sep. 18, 2014 Rise Set
Actual Time 7:06 AM MDT 7:29 PM MDT
Civil Twilight 6:37 AM MDT 7:58 PM MDT
Nautical Twilight 6:03 AM MDT 8:32 PM MDT
Astronomical Twilight 5:27 AM MDT 9:08 PM MDT
Moon 1:52 AM MDT 4:31 PM MDT
Length of Visible Light 13h 20m
Length of Day
12h 22m
Tomorrow will be 3m 4s shorter.
Waning Crescent, 25% of the Moon is Illuminated
Today
Waning Crescent
Sep 24
New
Oct 1
First Quarter
Oct 8
Full
Oct 15
Last Quarter

Today's Extremes

State Highs State Lows

Community

WunderPhotos

Upload Photos

1,754,409 photos uploaded!

Nearby

Snow Depth

Station Depth Elevation
Nevada Ridge 1 in 7020 ft
Stahl Peak 0 in 6030 ft
Wood Creek 1 in 5960 ft
Brackett Creek 1 in 7320 ft
West Yellowstone 0 in 6700 ft

Earthquake Activity

City Distance Mag. Time & Date
No recent earthquake activity has been reported nearby.
Minimum magnitude displayed is 2.5.

Coastal Water Temperatures

Place Temperature
No Stations Reporting

Nearby Weather Stations